createdAt,value
2019-05-20T00:00:19.126Z,67.70
2019-05-20T00:02:48.520Z,68.00
2019-05-20T00:05:17.938Z,68.00
2019-05-20T00:07:47.454Z,68.30
2019-05-20T00:10:16.895Z,67.10
2019-05-20T00:12:46.248Z,68.40
2019-05-20T00:15:15.898Z,68.60
2019-05-20T00:17:45.267Z,68.80
2019-05-20T00:20:14.710Z,69.00
2019-05-20T00:22:44.370Z,69.10
2019-05-20T00:25:13.999Z,69.20
2019-05-20T00:27:43.369Z,69.40
2019-05-20T00:30:13.579Z,69.50
2019-05-20T00:32:42.946Z,69.40
2019-05-20T00:35:12.594Z,69.70
2019-05-20T00:37:42.029Z,69.60
2019-05-20T00:40:12.525Z,69.80
2019-05-20T00:42:42.212Z,69.90
2019-05-20T00:45:13.420Z,70.00
2019-05-20T00:47:42.832Z,70.10
2019-05-20T00:50:12.958Z,70.00
2019-05-20T00:52:42.340Z,70.10
2019-05-20T00:55:25.425Z,70.40
2019-05-20T00:57:54.898Z,70.30
2019-05-20T01:00:24.708Z,70.40
2019-05-20T01:02:56.758Z,70.50
2019-05-20T01:05:25.853Z,70.80
2019-05-20T01:07:55.194Z,70.80
2019-05-20T01:10:24.879Z,71.00
2019-05-20T01:12:54.268Z,71.20
2019-05-20T01:15:23.723Z,71.00
2019-05-20T01:17:53.128Z,71.10
2019-05-20T01:20:22.497Z,71.40
2019-05-20T01:22:51.878Z,71.50
2019-05-20T01:25:21.280Z,71.60
2019-05-20T01:27:50.721Z,71.80
2019-05-20T01:30:21.813Z,71.80
2019-05-20T01:32:51.228Z,71.70
2019-05-20T01:35:20.940Z,71.90
2019-05-20T01:37:50.261Z,72.00
2019-05-20T01:40:19.640Z,72.00
2019-05-20T01:42:49.036Z,72.20
2019-05-20T01:45:19.674Z,72.10
2019-05-20T01:47:49.051Z,72.30
2019-05-20T01:50:18.649Z,72.40
2019-05-20T01:52:48.031Z,72.40
2019-05-20T01:55:17.409Z,72.50
2019-05-20T01:57:46.784Z,72.50
2019-05-20T02:00:17.313Z,72.70
2019-05-20T02:02:46.671Z,72.60
2019-05-20T02:05:16.125Z,72.50
2019-05-20T02:07:45.498Z,72.70
2019-05-20T02:10:16.385Z,72.60
2019-05-20T02:12:45.820Z,73.30
2019-05-20T02:15:17.447Z,72.60
2019-05-20T02:17:46.979Z,72.70
2019-05-20T02:20:16.642Z,72.70
2019-05-20T02:22:46.019Z,72.80
2019-05-20T02:25:15.966Z,72.80
2019-05-20T02:27:45.349Z,72.80
2019-05-20T02:30:15.385Z,72.80
2019-05-20T02:32:45.318Z,73.00
2019-05-20T02:35:15.095Z,73.00
2019-05-20T02:37:44.472Z,73.10
2019-05-20T02:40:14.263Z,73.30
2019-05-20T02:42:43.635Z,73.30
2019-05-20T02:45:13.446Z,73.40
2019-05-20T02:47:43.561Z,73.40
2019-05-20T02:50:13.509Z,73.40
2019-05-20T02:52:43.399Z,73.50
2019-05-20T02:55:13.221Z,73.60
2019-05-20T02:57:42.650Z,73.40
2019-05-20T03:00:13.132Z,73.70
2019-05-20T03:02:42.497Z,74.00
2019-05-20T03:05:12.592Z,74.20
2019-05-20T03:07:41.961Z,74.20
2019-05-20T03:10:11.644Z,74.30
2019-05-20T03:12:41.029Z,74.30
2019-05-20T03:15:10.643Z,74.60
2019-05-20T03:17:40.014Z,74.60
2019-05-20T03:20:10.684Z,74.70
2019-05-20T03:22:40.074Z,74.90
2019-05-20T03:25:09.723Z,74.90
2019-05-20T03:27:39.179Z,75.20
2019-05-20T03:30:10.631Z,75.10
2019-05-20T03:32:40.014Z,75.40
2019-05-20T03:35:10.216Z,75.50
2019-05-20T03:37:39.667Z,75.70
2019-05-20T03:40:09.852Z,75.60
2019-05-20T03:42:39.285Z,75.90
2019-05-20T03:45:09.465Z,75.90
2019-05-20T03:47:38.840Z,76.00
2019-05-20T03:50:09.897Z,76.70
2019-05-20T03:52:39.320Z,76.10
2019-05-20T03:55:09.354Z,76.20
2019-05-20T03:57:38.730Z,76.10
2019-05-20T04:00:09.884Z,76.00
2019-05-20T04:02:39.241Z,76.10
2019-05-20T04:05:10.501Z,76.00
2019-05-20T04:07:39.867Z,76.10
2019-05-20T04:10:10.245Z,76.20
2019-05-20T04:12:39.627Z,76.10
2019-05-20T04:15:09.335Z,76.10
2019-05-20T04:17:38.715Z,76.20
2019-05-20T04:20:08.898Z,76.20
2019-05-20T04:22:38.273Z,76.10
2019-05-20T04:25:08.577Z,76.00
2019-05-20T04:27:38.440Z,75.80
2019-05-20T04:30:08.827Z,75.80
2019-05-20T04:32:38.196Z,75.70
2019-05-20T04:35:21.228Z,75.50
2019-05-20T04:37:39.638Z,75.60
2019-05-20T04:40:09.720Z,75.40
2019-05-20T04:42:39.834Z,75.90
2019-05-20T04:45:10.260Z,75.00
2019-05-20T04:47:39.632Z,75.00
2019-05-20T04:50:10.034Z,74.80
2019-05-20T04:52:40.765Z,74.80
2019-05-20T04:55:10.485Z,74.70
2019-05-20T04:57:40.289Z,74.70
2019-05-20T05:00:11.207Z,74.60
2019-05-20T05:02:43.486Z,74.40
2019-05-20T05:05:12.062Z,74.30
2019-05-20T05:07:41.414Z,73.90
2019-05-20T05:10:12.496Z,73.70
2019-05-20T05:12:42.200Z,73.50
2019-05-20T05:15:13.279Z,73.30
2019-05-20T05:17:42.647Z,73.10
2019-05-20T05:20:18.165Z,73.00
2019-05-20T05:22:44.222Z,72.70
2019-05-20T05:25:14.161Z,72.40
2019-05-20T05:27:43.860Z,72.10
2019-05-20T05:30:13.314Z,70.40
2019-05-20T05:32:43.540Z,71.00
2019-05-20T05:35:18.884Z,70.30
2019-05-20T05:37:48.765Z,69.40
2019-05-20T05:40:18.570Z,68.70
2019-05-20T05:42:48.182Z,67.90
2019-05-20T05:45:22.140Z,67.30
2019-05-20T05:47:53.525Z,66.80
2019-05-20T05:50:22.920Z,67.70
2019-05-20T05:52:53.971Z,66.40
2019-05-20T05:55:25.305Z,67.20
2019-05-20T05:57:55.436Z,65.60
2019-05-20T06:00:25.103Z,65.30
2019-05-20T06:02:54.419Z,64.60
2019-05-20T06:05:23.811Z,64.50
2019-05-20T06:07:53.168Z,64.00
2019-05-20T06:10:23.282Z,63.90
2019-05-20T06:12:52.665Z,63.80
2019-05-20T06:15:22.452Z,63.60
2019-05-20T06:17:51.819Z,63.60
2019-05-20T06:20:21.904Z,63.60
2019-05-20T06:22:51.269Z,63.30
2019-05-20T06:25:22.169Z,62.80
2019-05-20T06:27:51.569Z,62.70
2019-05-20T06:30:24.323Z,62.60
2019-05-20T06:32:53.691Z,62.70
2019-05-20T06:35:23.263Z,61.70
2019-05-20T06:37:56.938Z,61.60
2019-05-20T06:40:26.336Z,61.40
2019-05-20T06:42:55.838Z,60.90
2019-05-20T06:45:25.250Z,60.60
2019-05-20T06:47:54.614Z,61.20
2019-05-20T06:50:24.569Z,59.70
2019-05-20T06:52:53.940Z,59.90
2019-05-20T06:55:23.320Z,60.00
2019-05-20T06:57:53.601Z,59.80
2019-05-20T07:00:38.521Z,59.70
2019-05-20T07:03:07.921Z,59.70
2019-05-20T07:05:37.466Z,59.50
2019-05-20T07:08:06.828Z,59.70
2019-05-20T07:10:36.340Z,59.50
2019-05-20T07:13:05.767Z,59.70
2019-05-20T07:15:35.144Z,59.50
2019-05-20T07:18:04.604Z,59.50
2019-05-20T07:20:33.984Z,59.50
2019-05-20T07:23:03.345Z,59.20
2019-05-20T07:25:32.764Z,59.30
2019-05-20T07:28:02.126Z,59.20
2019-05-20T07:30:31.492Z,58.90
2019-05-20T07:33:00.937Z,58.80
2019-05-20T07:35:31.221Z,58.90
2019-05-20T07:38:00.984Z,58.70
2019-05-20T07:40:32.799Z,58.60
2019-05-20T07:43:02.573Z,58.50
2019-05-20T07:45:35.043Z,58.60
2019-05-20T07:48:06.548Z,57.90
2019-05-20T07:50:41.019Z,58.00
2019-05-20T07:53:12.332Z,57.50
2019-05-20T07:55:58.282Z,57.40
2019-05-20T07:58:33.715Z,57.40
2019-05-20T08:01:03.447Z,56.70
2019-05-20T08:03:32.823Z,56.70
2019-05-20T08:06:02.719Z,57.00
2019-05-20T08:08:32.384Z,56.70
2019-05-20T08:11:02.154Z,56.50
2019-05-20T08:13:31.348Z,56.40
2019-05-20T08:18:37.087Z,55.70
2019-05-20T08:21:06.935Z,55.40
2019-05-20T08:23:36.491Z,54.70
2019-05-20T08:26:06.168Z,55.50
2019-05-20T08:28:35.661Z,54.60
2019-05-20T08:31:05.036Z,54.40
2019-05-20T08:33:34.494Z,54.40
2019-05-20T08:36:04.059Z,54.20
2019-05-20T08:38:33.433Z,54.10
2019-05-20T08:41:02.886Z,53.10
2019-05-20T08:43:32.274Z,52.30
2019-05-20T08:46:01.675Z,52.00
2019-05-20T08:48:31.423Z,52.00
2019-05-20T08:51:00.861Z,51.30
2019-05-20T08:53:30.270Z,51.00
2019-05-20T08:55:59.738Z,51.00
2019-05-20T08:58:29.088Z,50.80
2019-05-20T09:00:59.378Z,50.20
2019-05-20T09:03:30.536Z,50.00
2019-05-20T09:05:59.877Z,49.40
2019-05-20T09:08:29.247Z,49.30
2019-05-20T09:10:58.842Z,48.80
2019-05-20T09:13:28.281Z,48.70
2019-05-20T09:15:57.658Z,48.20
2019-05-20T09:18:27.121Z,48.40
2019-05-20T09:20:56.486Z,48.30
2019-05-20T09:23:25.948Z,47.40
2019-05-20T09:25:55.357Z,47.00
2019-05-20T09:28:24.895Z,47.00
2019-05-20T09:30:54.655Z,46.80
2019-05-20T09:33:26.564Z,46.30
2019-05-20T09:35:56.138Z,46.20
2019-05-20T09:38:25.528Z,45.70
2019-05-20T09:40:54.759Z,45.50
2019-05-20T09:43:24.105Z,44.90
2019-05-20T09:46:06.333Z,45.20
2019-05-20T09:48:25.372Z,45.10
2019-05-20T09:50:55.057Z,45.00
2019-05-20T09:53:25.212Z,45.50
2019-05-20T09:55:55.204Z,44.50
2019-05-20T09:58:24.688Z,44.50
2019-05-20T10:00:54.119Z,44.60
2019-05-20T10:03:24.635Z,44.40
2019-05-20T10:05:53.997Z,44.30
2019-05-20T10:08:36.974Z,44.00
2019-05-20T10:10:59.174Z,43.90
2019-05-20T10:13:25.777Z,44.20
2019-05-20T10:15:55.261Z,44.10
2019-05-20T10:18:36.550Z,44.10
2019-05-20T10:20:55.729Z,44.10
2019-05-20T10:23:25.140Z,44.20
2019-05-20T10:25:54.746Z,44.00
2019-05-20T10:28:24.148Z,43.80
2019-05-20T10:30:53.547Z,43.70
2019-05-20T10:33:23.059Z,43.70
2019-05-20T10:35:52.431Z,43.40
2019-05-20T10:38:21.812Z,43.30
2019-05-20T10:40:51.789Z,43.10
2019-05-20T10:43:21.160Z,42.90
2019-05-20T10:45:50.585Z,42.90
2019-05-20T10:48:19.926Z,43.00
2019-05-20T10:50:49.320Z,42.80
2019-05-20T10:53:18.713Z,42.60
2019-05-20T10:55:48.079Z,42.30
2019-05-20T10:58:17.533Z,42.40
2019-05-20T11:01:01.776Z,42.30
2019-05-20T11:03:18.835Z,42.00
2019-05-20T11:05:49.199Z,42.10
2019-05-20T11:08:18.732Z,42.00
2019-05-20T11:10:48.084Z,41.90
2019-05-20T11:13:18.029Z,42.00
2019-05-20T11:15:47.480Z,41.70
2019-05-20T11:18:17.128Z,41.50
2019-05-20T11:20:46.499Z,41.40
2019-05-20T11:23:15.893Z,41.40
2019-05-20T11:25:45.294Z,41.60
2019-05-20T11:28:14.663Z,41.60
2019-05-20T11:30:44.056Z,41.60
2019-05-20T11:33:13.538Z,41.70
2019-05-20T11:35:43.029Z,41.70
2019-05-20T11:38:12.494Z,41.50
2019-05-20T11:40:41.874Z,41.50
2019-05-20T11:43:11.266Z,41.40
2019-05-20T11:45:40.601Z,41.40
2019-05-20T11:48:10.576Z,41.40
2019-05-20T11:50:40.039Z,41.50
2019-05-20T11:53:09.621Z,41.50
2019-05-20T11:55:39.024Z,41.60
2019-05-20T11:58:15.891Z,41.40
2019-05-20T12:00:41.449Z,41.30
2019-05-20T12:03:11.039Z,41.40
2019-05-20T12:05:40.448Z,41.00
2019-05-20T12:08:10.964Z,40.80
2019-05-20T12:10:40.404Z,40.80
2019-05-20T12:13:09.786Z,40.70
2019-05-20T12:15:39.166Z,41.00
2019-05-20T12:18:08.560Z,41.00
2019-05-20T12:20:37.940Z,41.00
2019-05-20T12:23:07.320Z,41.00
2019-05-20T12:25:37.154Z,41.20
2019-05-20T12:28:06.537Z,41.70
2019-05-20T12:30:36.019Z,41.10
2019-05-20T12:33:18.665Z,41.10
2019-05-20T12:35:36.492Z,41.10
2019-05-20T12:38:05.883Z,41.10
2019-05-20T12:40:35.342Z,41.00
2019-05-20T12:43:04.773Z,41.10
2019-05-20T12:45:34.142Z,41.20
2019-05-20T12:48:03.926Z,41.10
2019-05-20T12:50:33.565Z,41.00
2019-05-20T12:53:02.934Z,41.00
2019-05-20T12:55:32.309Z,41.10
2019-05-20T12:58:02.025Z,41.20
2019-05-20T13:00:31.414Z,41.50
2019-05-20T13:03:00.793Z,41.80
2019-05-20T13:05:30.193Z,42.20
2019-05-20T13:07:59.579Z,42.40
2019-05-20T13:10:32.371Z,42.40
2019-05-20T13:13:01.569Z,42.60
2019-05-20T13:15:31.030Z,42.70
2019-05-20T13:18:00.416Z,42.50
2019-05-20T13:20:29.809Z,42.80
2019-05-20T13:22:59.189Z,42.70
2019-05-20T13:25:28.587Z,42.70
2019-05-20T13:27:58.004Z,42.70
2019-05-20T13:30:27.591Z,42.80
2019-05-20T13:32:57.228Z,43.00
2019-05-20T13:35:26.699Z,43.00
2019-05-20T13:37:56.123Z,43.10
2019-05-20T13:40:25.700Z,43.40
2019-05-20T13:42:55.357Z,43.60
2019-05-20T13:45:24.817Z,43.80
2019-05-20T13:47:54.195Z,44.00
2019-05-20T13:50:24.090Z,44.10
2019-05-20T13:52:53.463Z,44.40
2019-05-20T13:55:23.424Z,44.50
2019-05-20T13:57:52.818Z,44.60
2019-05-20T14:00:23.246Z,44.80
2019-05-20T14:02:52.588Z,44.90
2019-05-20T14:05:22.027Z,45.10
2019-05-20T14:07:51.427Z,45.40
2019-05-20T14:10:20.841Z,45.90
2019-05-20T14:12:51.285Z,46.20
2019-05-20T14:15:20.749Z,46.70
2019-05-20T14:17:50.444Z,46.60
2019-05-20T14:20:20.841Z,47.10
2019-05-20T14:22:50.220Z,47.40
2019-05-20T14:25:19.618Z,47.80
2019-05-20T14:27:49.054Z,48.50
2019-05-20T14:30:18.857Z,49.00
2019-05-20T14:32:48.272Z,49.80
2019-05-20T14:35:17.686Z,50.50
2019-05-20T14:37:47.042Z,51.00
2019-05-20T14:40:17.849Z,51.30
2019-05-20T14:42:47.221Z,51.70
2019-05-20T14:45:17.122Z,52.00
2019-05-20T14:47:46.510Z,53.00
2019-05-20T14:50:15.946Z,53.30
2019-05-20T14:52:45.316Z,54.10
2019-05-20T14:55:14.704Z,54.90
2019-05-20T14:57:44.328Z,55.30
2019-05-20T15:00:14.423Z,56.20
2019-05-20T15:02:44.305Z,56.80
2019-05-20T15:05:14.218Z,57.20
2019-05-20T15:07:43.691Z,57.80
2019-05-20T15:10:13.797Z,58.00
2019-05-20T15:12:43.176Z,58.90
2019-05-20T15:15:13.914Z,59.10
2019-05-20T15:17:43.321Z,59.60
2019-05-20T15:20:12.841Z,60.30
2019-05-20T15:22:42.577Z,60.50
2019-05-20T15:25:13.521Z,60.70
2019-05-20T15:27:42.930Z,60.50
2019-05-20T15:30:12.795Z,60.90
2019-05-20T15:32:42.372Z,62.10
2019-05-20T15:35:12.367Z,63.70
2019-05-20T15:37:42.039Z,65.40
2019-05-20T15:40:12.272Z,66.70
2019-05-20T15:42:41.642Z,66.20
2019-05-20T15:45:13.528Z,66.70
2019-05-20T15:47:43.390Z,66.90
2019-05-20T15:50:15.200Z,69.50
2019-05-20T15:52:44.598Z,73.10
2019-05-20T15:55:13.997Z,76.60
2019-05-20T15:57:44.962Z,78.60
2019-05-20T16:00:16.535Z,81.50
2019-05-20T16:02:48.917Z,80.70
2019-05-20T16:05:18.281Z,81.80
2019-05-20T16:07:47.673Z,83.30
2019-05-20T16:10:17.130Z,84.50
2019-05-20T16:12:46.502Z,86.20
2019-05-20T16:15:16.815Z,87.90
2019-05-20T16:17:48.458Z,88.50
2019-05-20T16:20:18.178Z,90.00
2019-05-20T16:22:47.904Z,90.40
2019-05-20T16:25:17.698Z,91.00
2019-05-20T16:27:47.066Z,91.60
2019-05-20T16:30:16.964Z,91.90
2019-05-20T16:32:46.383Z,92.00
2019-05-20T16:35:15.744Z,92.00
2019-05-20T16:37:45.597Z,91.90
2019-05-20T16:40:15.389Z,92.00
2019-05-20T16:42:44.754Z,92.00
2019-05-20T16:45:14.542Z,92.30
2019-05-20T16:47:44.430Z,92.20
2019-05-20T16:50:14.617Z,92.10
2019-05-20T16:52:45.625Z,92.30
2019-05-20T16:55:15.455Z,92.80
2019-05-20T16:57:44.826Z,93.00
2019-05-20T17:00:30.543Z,93.20
2019-05-20T17:02:46.981Z,93.50
2019-05-20T17:05:16.994Z,93.30
2019-05-20T17:07:46.369Z,93.30
2019-05-20T17:10:16.459Z,93.30
2019-05-20T17:12:45.851Z,93.00
2019-05-20T17:15:16.334Z,93.10
2019-05-20T17:17:45.755Z,93.20
2019-05-20T17:20:16.175Z,93.20
2019-05-20T17:22:45.543Z,93.30
2019-05-20T17:25:15.016Z,93.20
2019-05-20T17:27:44.422Z,93.20
2019-05-20T17:30:15.213Z,93.10
2019-05-20T17:32:44.591Z,93.10
2019-05-20T17:35:14.867Z,93.00
2019-05-20T17:37:44.239Z,92.80
2019-05-20T17:40:14.541Z,92.50
2019-05-20T17:42:43.918Z,92.30
2019-05-20T17:45:14.705Z,92.20
2019-05-20T17:47:44.538Z,92.50
2019-05-20T17:50:16.192Z,92.60
2019-05-20T17:52:45.567Z,92.50
2019-05-20T17:55:15.212Z,92.30
2019-05-20T17:57:44.583Z,92.20
2019-05-20T18:00:16.448Z,92.00
2019-05-20T18:02:46.287Z,92.00
2019-05-20T18:05:16.135Z,91.90
2019-05-20T18:07:45.521Z,91.90
2019-05-20T18:10:17.143Z,92.00
2019-05-20T18:12:46.756Z,91.90
2019-05-20T18:15:16.866Z,92.30
2019-05-20T18:17:46.269Z,92.60
2019-05-20T18:20:16.676Z,92.70
2019-05-20T18:22:47.118Z,92.50
2019-05-20T18:25:16.521Z,92.50
2019-05-20T18:27:45.924Z,92.30
2019-05-20T18:30:16.232Z,92.60
2019-05-20T18:32:45.642Z,92.50
2019-05-20T18:35:15.467Z,92.70
2019-05-20T18:37:44.841Z,92.80
2019-05-20T18:40:16.045Z,92.70
2019-05-20T18:42:45.488Z,93.00
2019-05-20T18:45:15.591Z,93.20
2019-05-20T18:47:45.556Z,93.30
2019-05-20T18:50:15.750Z,93.10
2019-05-20T18:52:45.117Z,93.30
2019-05-20T18:55:14.577Z,93.30
2019-05-20T18:57:44.075Z,93.10
2019-05-20T19:00:14.658Z,93.10
2019-05-20T19:02:44.402Z,93.40
2019-05-20T19:05:14.104Z,93.10
2019-05-20T19:07:43.585Z,93.20
2019-05-20T19:10:14.149Z,93.30
2019-05-20T19:12:43.598Z,93.50
2019-05-20T19:15:13.874Z,93.40
2019-05-20T19:17:43.302Z,93.70
2019-05-20T19:20:13.974Z,93.70
2019-05-20T19:22:43.412Z,93.70
2019-05-20T19:25:14.125Z,93.70
2019-05-20T19:27:43.541Z,93.70
2019-05-20T19:30:13.450Z,93.50
2019-05-20T19:32:42.872Z,93.70
2019-05-20T19:35:12.567Z,93.70
2019-05-20T19:37:41.997Z,93.90
2019-05-20T19:40:12.545Z,93.80
2019-05-20T19:42:41.946Z,93.70
2019-05-20T19:45:12.768Z,93.90
2019-05-20T19:47:42.162Z,93.60
2019-05-20T19:50:12.650Z,93.50
2019-05-20T19:52:42.116Z,93.30
2019-05-20T19:55:12.343Z,93.00
2019-05-20T19:57:41.736Z,92.90
2019-05-20T20:00:12.424Z,92.70
2019-05-20T20:02:41.859Z,92.60
2019-05-20T20:05:11.995Z,92.50
2019-05-20T20:07:41.382Z,92.50
2019-05-20T20:10:10.902Z,92.50
2019-05-20T20:12:40.274Z,92.40
2019-05-20T20:15:18.522Z,92.30
2019-05-20T20:17:48.260Z,92.30
2019-05-20T20:20:17.630Z,92.40
2019-05-20T20:22:47.053Z,92.60
2019-05-20T20:25:16.495Z,92.90
2019-05-20T20:27:46.648Z,93.50
2019-05-20T20:30:16.532Z,93.20
2019-05-20T20:32:45.932Z,93.40
2019-05-20T20:35:15.597Z,93.60
2019-05-20T20:37:45.508Z,93.70
2019-05-20T20:40:15.234Z,93.70
2019-05-20T20:42:44.598Z,93.50
2019-05-20T20:45:14.633Z,93.60
2019-05-20T20:47:44.003Z,93.50
2019-05-20T20:50:13.531Z,93.40
2019-05-20T20:52:43.043Z,93.40
2019-05-20T20:55:12.480Z,93.30
2019-05-20T20:57:41.846Z,93.10
2019-05-20T21:00:12.518Z,93.00
2019-05-20T21:02:52.595Z,93.00
2019-05-20T21:05:14.063Z,92.90
2019-05-20T21:07:43.454Z,93.00
2019-05-20T21:10:13.891Z,93.00
2019-05-20T21:12:43.262Z,93.00
2019-05-20T21:15:13.108Z,93.00
2019-05-20T21:17:42.552Z,92.90
2019-05-20T21:20:12.633Z,92.90
2019-05-20T21:22:42.009Z,92.90
2019-05-20T21:25:11.460Z,92.90
2019-05-20T21:27:40.845Z,92.80
2019-05-20T21:30:12.365Z,92.50
2019-05-20T21:32:41.737Z,92.50
2019-05-20T21:35:11.242Z,92.30
2019-05-20T21:37:40.687Z,92.50
2019-05-20T21:40:10.230Z,92.50
2019-05-20T21:42:39.598Z,92.60
2019-05-20T21:45:10.027Z,92.60
2019-05-20T21:47:39.434Z,92.50
2019-05-20T21:50:10.072Z,92.60
2019-05-20T21:52:39.456Z,92.70
2019-05-20T21:55:11.446Z,92.90
2019-05-20T21:57:41.113Z,92.60
2019-05-20T22:00:13.017Z,92.70
2019-05-20T22:02:42.458Z,92.60
2019-05-20T22:05:12.069Z,92.60
2019-05-20T22:07:41.459Z,92.60
2019-05-20T22:10:11.419Z,92.60
2019-05-20T22:12:40.821Z,92.60
2019-05-20T22:15:10.591Z,92.70
2019-05-20T22:17:39.965Z,92.60
2019-05-20T22:20:10.189Z,92.80
2019-05-20T22:22:47.106Z,92.90
2019-05-20T22:25:16.479Z,92.90
2019-05-20T22:27:45.862Z,92.90
2019-05-20T22:30:15.497Z,92.80
2019-05-20T22:32:45.375Z,93.00
2019-05-20T22:35:14.779Z,93.00
2019-05-20T22:37:44.181Z,93.40
2019-05-20T22:40:13.628Z,93.10
2019-05-20T22:42:42.999Z,93.20
2019-05-20T22:45:12.475Z,93.10
2019-05-20T22:47:41.867Z,93.10
2019-05-20T22:50:11.388Z,93.20
2019-05-20T22:52:40.770Z,93.20
2019-05-20T22:55:10.375Z,93.10
2019-05-20T22:57:39.754Z,93.30
2019-05-20T23:00:09.814Z,93.20
2019-05-20T23:02:39.173Z,93.30
2019-05-20T23:05:09.388Z,93.40
2019-05-20T23:07:39.203Z,93.30
2019-05-20T23:10:09.833Z,93.40
2019-05-20T23:12:39.208Z,93.50
2019-05-20T23:15:10.589Z,93.60
2019-05-20T23:17:39.959Z,93.60
2019-05-20T23:20:09.656Z,93.60
2019-05-20T23:22:39.037Z,93.70
2019-05-20T23:25:08.837Z,93.70
2019-05-20T23:27:38.250Z,93.70
2019-05-20T23:30:09.619Z,93.90
2019-05-20T23:32:38.989Z,93.70
2019-05-20T23:35:09.596Z,93.70
2019-05-20T23:37:38.975Z,93.80
2019-05-20T23:40:08.796Z,93.70
2019-05-20T23:42:38.188Z,94.00
2019-05-20T23:45:10.377Z,93.70
2019-05-20T23:47:40.522Z,93.70
2019-05-20T23:50:09.953Z,93.70
2019-05-20T23:52:39.354Z,93.70
2019-05-20T23:55:11.068Z,93.80
2019-05-20T23:57:40.433Z,93.70
